Time,TemperatureF,DewpointF,PressureIn,WindDirection,WindDirectionDegrees,WindSpeedMPH,WindSpeedGustMPH,Humidity,HourlyPrecipIn,Conditions,Clouds,dailyrainin,SoftwareType,DateUTC
2013-01-15 00:00:00,39.9,37.5,30.31,NW,314,0.0,2.0,91,0.00,,,0.00,Wunderground v.1.15,2013-01-15 05:00:00,
2013-01-15 00:01:00,39.9,37.5,30.31,NW,314,2.0,2.0,91,0.00,,,0.00,Wunderground v.1.15,2013-01-15 05:01:00,
2013-01-15 00:07:00,39.9,37.5,30.31,NW,316,3.0,3.0,91,0.00,,,0.00,Wunderground v.1.15,2013-01-15 05:07:00,
2013-01-15 00:10:00,39.9,37.8,30.30,NNW,340,1.0,1.0,92,0.00,,,0.00,Wunderground v.1.15,2013-01-15 05:10:00,
2013-01-15 00:15:00,40.0,37.9,30.30,NNW,340,0.0,1.0,92,0.00,,,0.00,Wunderground v.1.15,2013-01-15 05:15:00,
2013-01-15 00:21:00,39.9,37.8,30.30,NNE,13,0.0,1.0,92,0.00,,,0.00,Wunderground v.1.15,2013-01-15 05:21:00,
2013-01-15 00:26:00,39.8,37.7,30.30,NNW,344,0.0,2.0,92,0.00,,,0.00,Wunderground v.1.15,2013-01-15 05:26:00,
2013-01-15 00:31:00,39.8,37.7,30.29,NNW,344,0.0,1.0,92,0.00,,,0.00,Wunderground v.1.15,2013-01-15 05:31:00,
2013-01-15 00:37:00,39.8,37.7,30.29,NNW,344,1.0,1.0,92,0.00,,,0.00,Wunderground v.1.15,2013-01-15 05:37:00,
2013-01-15 00:42:00,39.8,37.7,30.28,NNW,344,0.0,1.0,92,0.00,,,0.01,Wunderground v.1.15,2013-01-15 05:42:00,
2013-01-15 00:48:00,39.8,37.7,30.28,NNW,344,0.0,1.0,92,0.00,,,0.01,Wunderground v.1.15,2013-01-15 05:48:00,
2013-01-15 00:54:00,39.8,37.9,30.27,NE,49,3.0,3.0,93,0.05,,,0.02,Wunderground v.1.15,2013-01-15 05:54:00,
2013-01-15 01:01:00,39.7,37.8,30.27,NE,49,0.0,1.0,93,0.10,,,0.04,Wunderground v.1.15,2013-01-15 06:01:00,
2013-01-15 01:07:00,39.7,37.8,30.27,NE,49,0.0,1.0,93,0.15,,,0.05,Wunderground v.1.15,2013-01-15 06:07:00,
2013-01-15 01:12:00,39.7,37.8,30.26,NNE,27,0.0,0.0,93,0.21,,,0.07,Wunderground v.1.15,2013-01-15 06:12:00,
2013-01-15 01:17:00,39.7,37.8,30.26,NNE,27,1.0,1.0,93,0.17,,,0.08,Wunderground v.1.15,2013-01-15 06:17:00,
2013-01-15 01:22:00,39.7,37.8,30.25,NNE,27,1.0,1.0,93,0.12,,,0.09,Wunderground v.1.15,2013-01-15 06:22:00,
2013-01-15 01:27:00,39.7,37.8,30.26,ENE,59,2.0,2.0,93,0.08,,,0.09,Wunderground v.1.15,2013-01-15 06:27:00,
2013-01-15 01:33:00,39.6,37.7,30.26,ENE,67,1.0,2.0,93,0.05,,,0.10,Wunderground v.1.15,2013-01-15 06:33:00,
2013-01-15 01:39:00,39.5,37.6,30.26,ENE,67,2.0,2.0,93,0.05,,,0.10,Wunderground v.1.15,2013-01-15 06:39:00,
2013-01-15 01:45:00,39.5,37.6,30.26,ENE,67,2.0,2.0,93,0.06,,,0.11,Wunderground v.1.15,2013-01-15 06:45:00,
2013-01-15 01:51:00,39.5,37.6,30.26,ENE,67,1.0,1.0,93,0.07,,,0.12,Wunderground v.1.15,2013-01-15 06:51:00,
2013-01-15 01:56:00,39.5,37.6,30.26,ENE,67,3.0,3.0,93,0.07,,,0.12,Wunderground v.1.15,2013-01-15 06:56:00,
2013-01-15 02:01:00,39.4,37.5,30.26,ENE,71,2.0,2.0,93,0.08,,,0.13,Wunderground v.1.15,2013-01-15 07:01:00,
2013-01-15 02:06:00,39.3,37.7,30.25,ENE,71,0.0,2.0,94,0.10,,,0.14,Wunderground v.1.15,2013-01-15 07:06:00,
2013-01-15 02:11:00,39.4,37.8,30.25,ENE,71,1.0,2.0,94,0.16,,,0.15,Wunderground v.1.15,2013-01-15 07:11:00,
2013-01-15 02:16:00,39.3,37.7,30.25,ENE,71,0.0,2.0,94,0.12,,,0.16,Wunderground v.1.15,2013-01-15 07:16:00,
2013-01-15 02:21:00,39.3,37.7,30.25,ENE,71,1.0,1.0,94,0.14,,,0.17,Wunderground v.1.15,2013-01-15 07:21:00,
2013-01-15 02:26:00,39.4,37.8,30.25,ENE,71,2.0,3.0,94,0.16,,,0.19,Wunderground v.1.15,2013-01-15 07:26:00,
2013-01-15 02:31:00,39.4,37.8,30.25,ENE,71,0.0,1.0,94,0.12,,,0.20,Wunderground v.1.15,2013-01-15 07:31:00,
2013-01-15 02:36:00,39.4,37.8,30.26,ENE,71,2.0,2.0,94,0.11,,,0.20,Wunderground v.1.15,2013-01-15 07:36:00,
2013-01-15 02:41:00,39.4,37.8,30.28,West,272,5.0,6.0,94,0.09,,,0.21,Wunderground v.1.15,2013-01-15 07:41:00,
2013-01-15 02:46:00,39.5,37.9,30.28,West,278,3.0,6.0,94,0.07,,,0.21,Wunderground v.1.15,2013-01-15 07:46:00,
2013-01-15 02:51:00,39.5,37.9,30.27,West,278,1.0,3.0,94,0.04,,,0.21,Wunderground v.1.15,2013-01-15 07:51:00,
2013-01-15 02:56:00,39.5,37.9,30.27,West,278,2.0,3.0,94,0.00,,,0.21,Wunderground v.1.15,2013-01-15 07:56:00,
2013-01-15 03:01:00,39.5,37.9,30.28,West,278,3.0,4.0,94,0.00,,,0.21,Wunderground v.1.15,2013-01-15 08:01:00,
2013-01-15 03:06:00,39.5,37.9,30.27,West,277,3.0,4.0,94,0.00,,,0.21,Wunderground v.1.15,2013-01-15 08:06:00,
2013-01-15 03:11:00,39.5,38.2,30.27,West,277,2.0,3.0,95,0.00,,,0.21,Wunderground v.1.15,2013-01-15 08:11:00,
2013-01-15 03:16:00,39.5,38.2,30.27,West,277,2.0,3.0,95,0.00,,,0.21,Wunderground v.1.15,2013-01-15 08:16:00,
2013-01-15 03:21:00,39.5,38.2,30.28,West,277,3.0,4.0,95,0.00,,,0.21,Wunderground v.1.15,2013-01-15 08:21:00,
2013-01-15 03:26:00,39.4,37.8,30.28,West,266,4.0,5.0,94,0.00,,,0.21,Wunderground v.1.15,2013-01-15 08:26:00,
2013-01-15 03:32:00,39.4,38.1,30.28,NW,310,5.0,5.0,95,0.00,,,0.21,Wunderground v.1.15,2013-01-15 08:32:00,
2013-01-15 03:37:00,39.3,38.0,30.28,West,269,6.0,7.0,95,0.00,,,0.21,Wunderground v.1.15,2013-01-15 08:37:00,
2013-01-15 03:42:00,39.2,37.9,30.28,WNW,286,2.0,4.0,95,0.00,,,0.21,Wunderground v.1.15,2013-01-15 08:42:00,
2013-01-15 03:47:00,39.2,37.9,30.27,WNW,293,2.0,4.0,95,0.00,,,0.21,Wunderground v.1.15,2013-01-15 08:47:00,
2013-01-15 03:52:00,39.1,37.8,30.29,West,281,4.0,6.0,95,0.00,,,0.21,Wunderground v.1.15,2013-01-15 08:52:00,
2013-01-15 03:57:00,39.1,37.8,30.27,West,274,2.0,7.0,95,0.00,,,0.21,Wunderground v.1.15,2013-01-15 08:57:00,
2013-01-15 04:02:00,39.1,37.8,30.28,WNW,282,3.0,7.0,95,0.00,,,0.21,Wunderground v.1.15,2013-01-15 09:02:00,
2013-01-15 04:07:00,39.1,37.8,30.29,West,277,5.0,9.0,95,0.00,,,0.21,Wunderground v.1.15,2013-01-15 09:07:00,
2013-01-15 04:12:00,38.9,37.6,30.28,West,273,6.0,7.0,95,0.00,,,0.21,Wunderground v.1.15,2013-01-15 09:12:00,
2013-01-15 04:17:00,38.9,37.6,30.27,NW,304,4.0,7.0,95,0.00,,,0.21,Wunderground v.1.15,2013-01-15 09:17:00,
2013-01-15 04:22:00,38.9,37.6,30.28,West,279,2.0,6.0,95,0.00,,,0.21,Wunderground v.1.15,2013-01-15 09:22:00,
2013-01-15 04:27:00,38.8,37.5,30.27,WNW,284,2.0,6.0,95,0.00,,,0.21,Wunderground v.1.15,2013-01-15 09:27:00,
2013-01-15 04:32:00,38.8,37.5,30.28,WNW,283,3.0,6.0,95,0.00,,,0.21,Wunderground v.1.15,2013-01-15 09:32:00,
2013-01-15 04:37:00,38.8,37.5,30.28,WNW,294,4.0,7.0,95,0.00,,,0.21,Wunderground v.1.15,2013-01-15 09:37:00,
2013-01-15 04:42:00,38.7,37.4,30.28,WNW,303,4.0,7.0,95,0.00,,,0.21,Wunderground v.1.15,2013-01-15 09:42:00,
2013-01-15 04:47:00,38.7,37.4,30.27,WNW,284,2.0,7.0,95,0.00,,,0.21,Wunderground v.1.15,2013-01-15 09:47:00,
2013-01-15 04:52:00,38.7,37.4,30.26,West,279,2.0,3.0,95,0.00,,,0.21,Wunderground v.1.15,2013-01-15 09:52:00,
2013-01-15 04:57:00,38.7,37.4,30.26,WNW,302,3.0,4.0,95,0.00,,,0.21,Wunderground v.1.15,2013-01-15 09:57:00,
2013-01-15 05:02:00,38.7,37.4,30.26,NW,306,3.0,4.0,95,0.00,,,0.21,Wunderground v.1.15,2013-01-15 10:02:00,
2013-01-15 05:07:00,38.7,37.4,30.26,West,279,0.0,6.0,95,0.00,,,0.21,Wunderground v.1.15,2013-01-15 10:07:00,
2013-01-15 05:12:00,38.7,37.4,30.24,East,92,3.0,7.0,95,0.00,,,0.21,Wunderground v.1.15,2013-01-15 10:12:00,
2013-01-15 05:17:00,38.7,37.4,30.25,WNW,288,3.0,7.0,95,0.00,,,0.21,Wunderground v.1.15,2013-01-15 10:17:00,
2013-01-15 05:22:00,38.8,37.5,30.25,NW,325,1.0,3.0,95,0.00,,,0.22,Wunderground v.1.15,2013-01-15 10:22:00,
2013-01-15 05:27:00,38.8,37.5,30.25,North,359,1.0,3.0,95,0.00,,,0.22,Wunderground v.1.15,2013-01-15 10:27:00,
2013-01-15 05:32:00,38.8,37.5,30.25,NNE,16,0.0,2.0,95,0.00,,,0.22,Wunderground v.1.15,2013-01-15 10:32:00,
2013-01-15 05:37:00,38.8,37.5,30.27,NW,314,2.0,3.0,95,0.00,,,0.22,Wunderground v.1.15,2013-01-15 10:37:00,
2013-01-15 05:42:00,38.8,37.5,30.27,NW,314,1.0,1.0,95,0.00,,,0.22,Wunderground v.1.15,2013-01-15 10:42:00,
2013-01-15 05:47:00,38.8,37.5,30.26,NW,314,0.0,2.0,95,0.00,,,0.22,Wunderground v.1.15,2013-01-15 10:47:00,
2013-01-15 05:52:00,38.8,37.5,30.26,NW,314,1.0,3.0,95,0.00,,,0.22,Wunderground v.1.15,2013-01-15 10:52:00,
2013-01-15 05:57:00,38.8,37.5,30.26,NW,314,0.0,3.0,95,0.00,,,0.22,Wunderground v.1.15,2013-01-15 10:57:00,
2013-01-15 06:02:00,38.8,37.5,30.27,NW,314,2.0,3.0,95,0.00,,,0.22,Wunderground v.1.15,2013-01-15 11:02:00,
2013-01-15 06:07:00,38.9,37.6,30.28,WNW,293,3.0,5.0,95,0.00,,,0.22,Wunderground v.1.15,2013-01-15 11:07:00,
2013-01-15 06:12:00,38.9,37.6,30.28,WNW,290,3.0,4.0,95,0.00,,,0.22,Wunderground v.1.15,2013-01-15 11:12:00,
2013-01-15 06:17:00,38.9,37.6,30.28,West,276,4.0,7.0,95,0.00,,,0.22,Wunderground v.1.15,2013-01-15 11:17:00,
2013-01-15 06:22:00,38.9,37.6,30.28,WNW,284,2.0,5.0,95,0.00,,,0.23,Wunderground v.1.15,2013-01-15 11:22:00,
2013-01-15 06:27:00,38.9,37.6,30.28,NW,326,2.0,5.0,95,0.00,,,0.23,Wunderground v.1.15,2013-01-15 11:27:00,
2013-01-15 06:32:00,39.0,37.7,30.28,WNW,286,4.0,4.0,95,0.00,,,0.23,Wunderground v.1.15,2013-01-15 11:32:00,
2013-01-15 06:37:00,39.0,37.7,30.29,WNW,287,3.0,4.0,95,0.00,,,0.23,Wunderground v.1.15,2013-01-15 11:37:00,
2013-01-15 06:42:00,39.0,37.7,30.29,WNW,284,4.0,4.0,95,0.00,,,0.23,Wunderground v.1.15,2013-01-15 11:42:00,
2013-01-15 06:47:00,39.0,37.7,30.29,West,277,1.0,8.0,95,0.00,,,0.24,Wunderground v.1.15,2013-01-15 11:47:00,
2013-01-15 06:52:00,39.0,37.7,30.29,NW,309,2.0,4.0,95,0.00,,,0.24,Wunderground v.1.15,2013-01-15 11:52:00,
2013-01-15 06:57:00,39.0,37.7,30.29,WNW,286,3.0,5.0,95,0.00,,,0.24,Wunderground v.1.15,2013-01-15 11:57:00,
2013-01-15 07:02:00,39.0,37.7,30.29,NW,304,3.0,5.0,95,0.05,,,0.25,Wunderground v.1.15,2013-01-15 12:02:00,
2013-01-15 07:07:00,39.0,38.0,30.29,WNW,302,3.0,5.0,96,0.05,,,0.25,Wunderground v.1.15,2013-01-15 12:07:00,
2013-01-15 07:12:00,38.9,37.9,30.29,WNW,294,2.0,4.0,96,0.04,,,0.25,Wunderground v.1.15,2013-01-15 12:12:00,
2013-01-15 07:17:00,38.9,37.9,30.29,NW,307,2.0,5.0,96,0.00,,,0.25,Wunderground v.1.15,2013-01-15 12:17:00,
2013-01-15 07:22:00,38.9,37.9,30.29,West,266,3.0,4.0,96,0.00,,,0.25,Wunderground v.1.15,2013-01-15 12:22:00,
2013-01-15 07:27:00,38.9,37.9,30.29,WNW,285,2.0,4.0,96,0.00,,,0.25,Wunderground v.1.15,2013-01-15 12:27:00,
2013-01-15 07:32:00,38.9,37.9,30.30,WNW,298,2.0,4.0,96,0.00,,,0.26,Wunderground v.1.15,2013-01-15 12:32:00,
2013-01-15 07:37:00,38.9,37.9,30.32,WNW,292,4.0,6.0,96,0.00,,,0.26,Wunderground v.1.15,2013-01-15 12:37:00,
2013-01-15 07:42:00,38.9,37.9,30.31,NW,314,2.0,7.0,96,0.00,,,0.26,Wunderground v.1.15,2013-01-15 12:42:00,
2013-01-15 07:47:00,38.9,37.9,30.31,NW,320,2.0,7.0,96,0.00,,,0.26,Wunderground v.1.15,2013-01-15 12:47:00,
2013-01-15 07:52:00,38.9,37.9,30.31,NW,324,1.0,2.0,96,0.00,,,0.26,Wunderground v.1.15,2013-01-15 12:52:00,
2013-01-15 07:57:00,38.9,37.9,30.32,NW,305,1.0,4.0,96,0.00,,,0.26,Wunderground v.1.15,2013-01-15 12:57:00,
2013-01-15 08:02:00,38.9,37.9,30.34,NNW,330,4.0,6.0,96,0.00,,,0.26,Wunderground v.1.15,2013-01-15 13:02:00,
2013-01-15 08:07:00,38.9,37.9,30.33,WNW,302,2.0,6.0,96,0.00,,,0.26,Wunderground v.1.15,2013-01-15 13:07:00,
2013-01-15 08:12:00,39.0,38.0,30.31,ENE,59,1.0,3.0,96,0.00,,,0.26,Wunderground v.1.15,2013-01-15 13:12:00,
2013-01-15 08:17:00,39.0,38.0,30.34,WNW,283,3.0,5.0,96,0.00,,,0.26,Wunderground v.1.15,2013-01-15 13:17:00,
2013-01-15 08:22:00,39.0,38.0,30.35,West,278,1.0,7.0,96,0.00,,,0.26,Wunderground v.1.15,2013-01-15 13:22:00,
2013-01-15 08:27:00,39.0,38.0,30.34,NW,312,0.0,7.0,96,0.00,,,0.26,Wunderground v.1.15,2013-01-15 13:27:00,
2013-01-15 08:32:00,39.0,38.0,30.34,West,280,1.0,3.0,96,0.00,,,0.27,Wunderground v.1.15,2013-01-15 13:32:00,
2013-01-15 08:37:00,39.0,38.0,30.34,WNW,284,1.0,6.0,96,0.00,,,0.27,Wunderground v.1.15,2013-01-15 13:37:00,
2013-01-15 08:42:00,39.0,38.0,30.34,WNW,303,1.0,4.0,96,0.00,,,0.27,Wunderground v.1.15,2013-01-15 13:42:00,
2013-01-15 08:47:00,39.0,38.0,30.35,NNW,335,2.0,7.0,96,0.00,,,0.27,Wunderground v.1.15,2013-01-15 13:47:00,
2013-01-15 08:52:00,38.9,37.9,30.34,NNW,346,3.0,5.0,96,0.00,,,0.27,Wunderground v.1.15,2013-01-15 13:52:00,
2013-01-15 08:57:00,38.9,37.9,30.34,NW,307,3.0,5.0,96,0.00,,,0.28,Wunderground v.1.15,2013-01-15 13:57:00,
2013-01-15 09:02:00,38.9,37.9,30.34,NW,323,0.0,4.0,96,0.00,,,0.28,Wunderground v.1.15,2013-01-15 14:02:00,
2013-01-15 09:07:00,38.9,37.9,30.34,West,281,1.0,5.0,96,0.00,,,0.28,Wunderground v.1.15,2013-01-15 14:07:00,
2013-01-15 09:12:00,39.0,38.0,30.34,WSW,254,2.0,3.0,96,0.00,,,0.28,Wunderground v.1.15,2013-01-15 14:12:00,
2013-01-15 09:17:00,39.0,38.0,30.34,WNW,284,2.0,3.0,96,0.00,,,0.28,Wunderground v.1.15,2013-01-15 14:17:00,
2013-01-15 09:23:00,39.1,38.1,30.34,NNW,340,0.0,2.0,96,0.00,,,0.28,Wunderground v.1.15,2013-01-15 14:23:00,
2013-01-15 09:28:00,39.2,38.2,30.33,NW,308,1.0,3.0,96,0.00,,,0.28,Wunderground v.1.15,2013-01-15 14:28:00,
2013-01-15 09:33:00,39.2,38.2,30.35,WNW,285,3.0,5.0,96,0.00,,,0.28,Wunderground v.1.15,2013-01-15 14:33:00,
2013-01-15 09:38:00,39.2,38.2,30.33,NE,55,3.0,5.0,96,0.00,,,0.28,Wunderground v.1.15,2013-01-15 14:38:00,
2013-01-15 09:43:00,39.2,38.2,30.36,West,263,3.0,10.0,96,0.00,,,0.28,Wunderground v.1.15,2013-01-15 14:43:00,
2013-01-15 09:48:00,39.2,38.2,30.35,WNW,286,0.0,10.0,96,0.00,,,0.28,Wunderground v.1.15,2013-01-15 14:48:00,
2013-01-15 09:53:00,39.2,38.2,30.35,West,269,2.0,4.0,96,0.00,,,0.28,Wunderground v.1.15,2013-01-15 14:53:00,
2013-01-15 09:58:00,39.2,38.2,30.35,North,354,4.0,6.0,96,0.00,,,0.28,Wunderground v.1.15,2013-01-15 14:58:00,
2013-01-15 10:03:00,39.1,38.1,30.36,WNW,290,2.0,5.0,96,0.00,,,0.28,Wunderground v.1.15,2013-01-15 15:03:00,
2013-01-15 10:08:00,39.1,38.1,30.35,West,279,2.0,5.0,96,0.00,,,0.29,Wunderground v.1.15,2013-01-15 15:08:00,
2013-01-15 10:13:00,39.1,38.1,30.34,NW,323,1.0,3.0,96,0.00,,,0.29,Wunderground v.1.15,2013-01-15 15:13:00,
2013-01-15 10:18:00,39.1,38.1,30.35,NW,306,0.0,3.0,96,0.00,,,0.29,Wunderground v.1.15,2013-01-15 15:18:00,
2013-01-15 10:23:00,39.1,38.1,30.37,WNW,287,3.0,6.0,96,0.00,,,0.29,Wunderground v.1.15,2013-01-15 15:23:00,
2013-01-15 10:28:00,39.2,38.2,30.35,North,353,0.0,6.0,96,0.00,,,0.29,Wunderground v.1.15,2013-01-15 15:28:00,
2013-01-15 10:33:00,39.2,38.2,30.34,NW,307,0.0,3.0,96,0.00,,,0.29,Wunderground v.1.15,2013-01-15 15:33:00,
2013-01-15 10:38:00,39.2,38.2,30.33,NNE,17,1.0,4.0,96,0.00,,,0.30,Wunderground v.1.15,2013-01-15 15:38:00,
2013-01-15 10:43:00,39.2,38.2,30.35,WNW,294,4.0,4.0,96,0.00,,,0.30,Wunderground v.1.15,2013-01-15 15:43:00,
2013-01-15 10:48:00,39.3,38.3,30.36,NW,313,2.0,5.0,96,0.00,,,0.30,Wunderground v.1.15,2013-01-15 15:48:00,
2013-01-15 10:53:00,39.4,38.4,30.35,NW,324,1.0,4.0,96,0.00,,,0.30,Wunderground v.1.15,2013-01-15 15:53:00,
2013-01-15 10:58:00,39.4,38.4,30.36,NW,311,0.0,4.0,96,0.00,,,0.30,Wunderground v.1.15,2013-01-15 15:58:00,
2013-01-15 11:03:00,39.4,38.4,30.35,NNW,330,1.0,4.0,96,0.00,,,0.30,Wunderground v.1.15,2013-01-15 16:03:00,
2013-01-15 11:08:00,39.4,38.4,30.34,WNW,303,1.0,4.0,96,0.00,,,0.30,Wunderground v.1.15,2013-01-15 16:08:00,
2013-01-15 11:13:00,39.3,38.3,30.35,NNW,330,2.0,2.0,96,0.00,,,0.30,Wunderground v.1.15,2013-01-15 16:13:00,
2013-01-15 11:18:00,39.4,38.4,30.35,NW,304,0.0,4.0,96,0.00,,,0.30,Wunderground v.1.15,2013-01-15 16:18:00,
2013-01-15 11:23:00,39.3,38.3,30.33,NNW,340,2.0,2.0,96,0.00,,,0.30,Wunderground v.1.15,2013-01-15 16:23:00,
2013-01-15 11:28:00,39.3,38.3,30.32,North,2,0.0,3.0,96,0.00,,,0.31,Wunderground v.1.15,2013-01-15 16:28:00,
2013-01-15 11:33:00,39.3,38.3,30.31,NNW,340,3.0,3.0,96,0.00,,,0.31,Wunderground v.1.15,2013-01-15 16:33:00,
2013-01-15 11:38:00,39.5,38.5,30.34,West,280,4.0,5.0,96,0.00,,,0.31,Wunderground v.1.15,2013-01-15 16:38:00,
2013-01-15 11:43:00,39.5,38.5,30.33,NNW,335,1.0,3.0,96,0.00,,,0.31,Wunderground v.1.15,2013-01-15 16:43:00,
2013-01-15 11:48:00,39.4,38.4,30.33,NW,311,0.0,4.0,96,0.00,,,0.31,Wunderground v.1.15,2013-01-15 16:48:00,
2013-01-15 11:53:00,39.4,38.4,30.34,WNW,294,2.0,5.0,96,0.00,,,0.31,Wunderground v.1.15,2013-01-15 16:53:00,
2013-01-15 11:58:00,39.5,38.5,30.33,WNW,294,1.0,5.0,96,0.00,,,0.31,Wunderground v.1.15,2013-01-15 16:58:00,
2013-01-15 12:03:00,39.5,38.5,30.32,WNW,288,0.0,3.0,96,0.00,,,0.31,Wunderground v.1.15,2013-01-15 17:03:00,
2013-01-15 12:08:00,39.4,38.4,30.32,WNW,291,1.0,4.0,96,0.00,,,0.31,Wunderground v.1.15,2013-01-15 17:08:00,
2013-01-15 12:13:00,39.4,38.4,30.32,WNW,291,0.0,3.0,96,0.00,,,0.31,Wunderground v.1.15,2013-01-15 17:13:00,
2013-01-15 12:18:00,39.3,38.3,30.32,WNW,291,1.0,3.0,96,0.00,,,0.31,Wunderground v.1.15,2013-01-15 17:18:00,
2013-01-15 12:23:00,39.4,38.4,30.31,NW,315,4.0,4.0,96,0.00,,,0.31,Wunderground v.1.15,2013-01-15 17:23:00,
2013-01-15 12:28:00,39.4,38.4,30.32,WNW,291,2.0,5.0,96,0.00,,,0.31,Wunderground v.1.15,2013-01-15 17:28:00,
2013-01-15 12:33:00,39.3,38.3,30.30,NNW,330,1.0,2.0,96,0.00,,,0.31,Wunderground v.1.15,2013-01-15 17:33:00,
2013-01-15 12:39:00,39.3,38.3,30.30,ENE,70,2.0,5.0,96,0.00,,,0.31,Wunderground v.1.15,2013-01-15 17:39:00,
2013-01-15 12:44:00,39.3,38.3,30.29,NE,52,0.0,3.0,96,0.00,,,0.31,Wunderground v.1.15,2013-01-15 17:44:00,
2013-01-15 12:49:00,39.3,38.3,30.32,NW,306,1.0,5.0,96,0.00,,,0.31,Wunderground v.1.15,2013-01-15 17:49:00,
2013-01-15 12:54:00,39.4,38.4,30.31,NW,308,2.0,3.0,96,0.00,,,0.31,Wunderground v.1.15,2013-01-15 17:54:00,
2013-01-15 12:59:00,39.4,38.4,30.31,WNW,292,0.0,7.0,96,0.00,,,0.31,Wunderground v.1.15,2013-01-15 17:59:00,
2013-01-15 13:04:00,39.4,38.4,30.31,WNW,292,0.0,2.0,96,0.00,,,0.31,Wunderground v.1.15,2013-01-15 18:04:00,
2013-01-15 13:09:00,39.4,38.4,30.29,NNW,335,1.0,3.0,96,0.00,,,0.31,Wunderground v.1.15,2013-01-15 18:09:00,
2013-01-15 13:14:00,39.4,38.4,30.30,WNW,300,0.0,2.0,96,0.00,,,0.31,Wunderground v.1.15,2013-01-15 18:14:00,
2013-01-15 13:19:00,39.5,38.5,30.30,WNW,300,3.0,3.0,96,0.00,,,0.31,Wunderground v.1.15,2013-01-15 18:19:00,
2013-01-15 13:24:00,39.5,38.5,30.30,West,277,0.0,6.0,96,0.00,,,0.31,Wunderground v.1.15,2013-01-15 18:24:00,
2013-01-15 13:29:00,39.5,38.5,30.29,NNW,335,1.0,6.0,96,0.00,,,0.31,Wunderground v.1.15,2013-01-15 18:29:00,
2013-01-15 13:34:00,39.5,38.5,30.29,NNW,335,0.0,2.0,96,0.00,,,0.31,Wunderground v.1.15,2013-01-15 18:34:00,
2013-01-15 13:39:00,39.5,38.5,30.27,NNE,31,1.0,3.0,96,0.00,,,0.31,Wunderground v.1.15,2013-01-15 18:39:00,
2013-01-15 13:44:00,39.6,38.6,30.26,North,357,2.0,2.0,96,0.00,,,0.31,Wunderground v.1.15,2013-01-15 18:44:00,
2013-01-15 13:49:00,39.6,38.6,30.27,North,357,0.0,2.0,96,0.00,,,0.31,Wunderground v.1.15,2013-01-15 18:49:00,
2013-01-15 13:55:00,39.6,38.6,30.28,NW,315,1.0,3.0,96,0.00,,,0.31,Wunderground v.1.15,2013-01-15 18:55:00,
2013-01-15 13:59:00,39.6,38.6,30.28,NW,315,2.0,2.0,96,0.00,,,0.31,Wunderground v.1.15,2013-01-15 18:59:00,
2013-01-15 14:05:00,39.6,38.6,30.28,NW,315,1.0,2.0,96,0.00,,,0.31,Wunderground v.1.15,2013-01-15 19:05:00,
2013-01-15 14:10:00,39.6,38.6,30.28,NW,315,1.0,2.0,96,0.00,,,0.31,Wunderground v.1.15,2013-01-15 19:10:00,
2013-01-15 14:15:00,39.7,38.7,30.26,ENE,72,5.0,5.0,96,0.00,,,0.31,Wunderground v.1.15,2013-01-15 19:15:00,
2013-01-15 14:20:00,39.7,38.7,30.24,NE,36,2.0,2.0,96,0.00,,,0.31,Wunderground v.1.15,2013-01-15 19:20:00,
2013-01-15 14:25:00,39.8,38.8,30.26,WNW,288,1.0,4.0,96,0.00,,,0.31,Wunderground v.1.15,2013-01-15 19:25:00,
2013-01-15 14:30:00,39.8,38.8,30.28,WNW,289,2.0,2.0,96,0.00,,,0.31,Wunderground v.1.15,2013-01-15 19:30:00,
2013-01-15 14:35:00,39.8,38.8,30.28,WNW,286,1.0,3.0,96,0.00,,,0.31,Wunderground v.1.15,2013-01-15 19:35:00,
2013-01-15 14:40:00,39.8,38.8,30.27,WNW,286,0.0,1.0,96,0.00,,,0.31,Wunderground v.1.15,2013-01-15 19:40:00,
2013-01-15 14:45:00,39.8,38.8,30.26,North,359,0.0,4.0,96,0.00,,,0.31,Wunderground v.1.15,2013-01-15 19:45:00,
2013-01-15 14:50:00,39.7,38.7,30.26,North,5,1.0,2.0,96,0.00,,,0.31,Wunderground v.1.15,2013-01-15 19:50:00,
2013-01-15 14:55:00,39.7,38.7,30.27,NW,320,0.0,3.0,96,0.00,,,0.31,Wunderground v.1.15,2013-01-15 19:55:00,
2013-01-15 15:00:00,39.7,38.7,30.28,NW,313,3.0,3.0,96,0.00,,,0.31,Wunderground v.1.15,2013-01-15 20:00:00,
2013-01-15 15:05:00,39.8,38.8,30.28,NW,312,1.0,3.0,96,0.00,,,0.31,Wunderground v.1.15,2013-01-15 20:05:00,
2013-01-15 15:10:00,39.8,38.8,30.27,NNE,24,2.0,3.0,96,0.00,,,0.31,Wunderground v.1.15,2013-01-15 20:10:00,
2013-01-15 15:15:00,39.8,38.8,30.27,NNE,24,1.0,3.0,96,0.00,,,0.31,Wunderground v.1.15,2013-01-15 20:15:00,
2013-01-15 15:20:00,39.8,38.8,30.27,NNE,28,2.0,2.0,96,0.00,,,0.31,Wunderground v.1.15,2013-01-15 20:20:00,
2013-01-15 15:25:00,39.8,38.8,30.27,ENE,57,1.0,5.0,96,0.00,,,0.31,Wunderground v.1.15,2013-01-15 20:25:00,
2013-01-15 15:30:00,39.8,38.8,30.26,ENE,59,2.0,3.0,96,0.00,,,0.31,Wunderground v.1.15,2013-01-15 20:30:00,
2013-01-15 15:35:00,39.7,38.7,30.27,ENE,69,5.0,8.0,96,0.00,,,0.31,Wunderground v.1.15,2013-01-15 20:35:00,
2013-01-15 15:40:00,39.6,38.6,30.27,ENE,63,2.0,5.0,96,0.00,,,0.31,Wunderground v.1.15,2013-01-15 20:40:00,
2013-01-15 15:45:00,39.6,38.6,30.30,NE,51,2.0,5.0,96,0.00,,,0.31,Wunderground v.1.15,2013-01-15 20:45:00,
2013-01-15 15:50:00,39.6,38.6,30.30,NE,51,2.0,2.0,96,0.00,,,0.31,Wunderground v.1.15,2013-01-15 20:50:00,
2013-01-15 15:55:00,39.6,38.6,30.31,NE,51,0.0,2.0,96,0.00,,,0.31,Wunderground v.1.15,2013-01-15 20:55:00,
2013-01-15 16:00:00,39.7,38.7,30.30,NE,51,1.0,1.0,96,0.00,,,0.31,Wunderground v.1.15,2013-01-15 21:00:00,
2013-01-15 16:05:00,39.6,38.6,30.29,ENE,57,0.0,3.0,96,0.00,,,0.31,Wunderground v.1.15,2013-01-15 21:05:00,
2013-01-15 16:10:00,39.6,38.6,30.29,ENE,57,1.0,1.0,96,0.00,,,0.31,Wunderground v.1.15,2013-01-15 21:10:00,
2013-01-15 16:15:00,39.7,38.7,30.29,ENE,57,1.0,2.0,96,0.00,,,0.31,Wunderground v.1.15,2013-01-15 21:15:00,
2013-01-15 16:20:00,39.7,38.7,30.28,ESE,112,2.0,7.0,96,0.00,,,0.31,Wunderground v.1.15,2013-01-15 21:20:00,
2013-01-15 16:25:00,39.7,38.7,30.28,East,91,1.0,7.0,96,0.00,,,0.31,Wunderground v.1.15,2013-01-15 21:25:00,
2013-01-15 16:30:00,39.7,38.4,30.29,East,91,2.0,2.0,95,0.00,,,0.31,Wunderground v.1.15,2013-01-15 21:30:00,
2013-01-15 16:35:00,39.7,38.4,30.29,East,91,0.0,2.0,95,0.00,,,0.31,Wunderground v.1.15,2013-01-15 21:35:00,
2013-01-15 16:40:00,39.6,38.3,30.28,East,91,0.0,0.0,95,0.00,,,0.31,Wunderground v.1.15,2013-01-15 21:40:00,
2013-01-15 16:45:00,39.6,38.3,30.28,East,91,1.0,1.0,95,0.00,,,0.31,Wunderground v.1.15,2013-01-15 21:45:00,
2013-01-15 16:50:00,39.5,38.2,30.26,East,91,0.0,1.0,95,0.00,,,0.31,Wunderground v.1.15,2013-01-15 21:50:00,
2013-01-15 16:55:00,39.5,38.2,30.27,NE,43,3.0,5.0,95,0.00,,,0.31,Wunderground v.1.15,2013-01-15 21:55:00,
2013-01-15 17:00:00,39.3,38.0,30.26,NE,51,3.0,6.0,95,0.00,,,0.31,Wunderground v.1.15,2013-01-15 22:00:00,
2013-01-15 17:05:00,39.3,38.0,30.25,NE,47,3.0,6.0,95,0.00,,,0.31,Wunderground v.1.15,2013-01-15 22:05:00,
2013-01-15 17:10:00,39.2,37.9,30.25,NE,55,3.0,5.0,95,0.00,,,0.31,Wunderground v.1.15,2013-01-15 22:10:00,
2013-01-15 17:15:00,39.1,37.8,30.25,NE,55,3.0,7.0,95,0.00,,,0.31,Wunderground v.1.15,2013-01-15 22:15:00,
2013-01-15 17:20:00,39.1,37.8,30.25,ENE,64,3.0,3.0,95,0.00,,,0.31,Wunderground v.1.15,2013-01-15 22:20:00,
2013-01-15 17:25:00,39.1,37.8,30.26,ENE,66,1.0,5.0,95,0.00,,,0.31,Wunderground v.1.15,2013-01-15 22:25:00,
2013-01-15 17:30:00,39.1,37.8,30.25,East,82,7.0,7.0,95,0.00,,,0.31,Wunderground v.1.15,2013-01-15 22:30:00,
2013-01-15 17:35:00,39.0,37.7,30.26,NE,55,2.0,7.0,95,0.00,,,0.31,Wunderground v.1.15,2013-01-15 22:35:00,
2013-01-15 17:40:00,39.0,37.7,30.27,NE,49,2.0,2.0,95,0.00,,,0.31,Wunderground v.1.15,2013-01-15 22:40:00,
2013-01-15 17:45:00,39.0,37.7,30.27,NE,49,0.0,2.0,95,0.00,,,0.31,Wunderground v.1.15,2013-01-15 22:45:00,
2013-01-15 17:50:00,39.0,37.7,30.28,NE,49,0.0,1.0,95,0.00,,,0.31,Wunderground v.1.15,2013-01-15 22:50:00,
2013-01-15 17:55:00,39.0,37.7,30.28,NE,49,1.0,1.0,95,0.00,,,0.31,Wunderground v.1.15,2013-01-15 22:55:00,
2013-01-15 18:00:00,39.0,37.7,30.28,NE,49,0.0,0.0,95,0.00,,,0.31,Wunderground v.1.15,2013-01-15 23:00:00,
2013-01-15 18:05:00,39.1,37.8,30.28,ENE,69,2.0,3.0,95,0.00,,,0.31,Wunderground v.1.15,2013-01-15 23:05:00,
2013-01-15 18:10:00,39.1,37.8,30.28,ENE,69,0.0,1.0,95,0.00,,,0.31,Wunderground v.1.15,2013-01-15 23:10:00,
2013-01-15 18:15:00,39.1,37.8,30.29,ENE,69,1.0,1.0,95,0.00,,,0.31,Wunderground v.1.15,2013-01-15 23:15:00,
2013-01-15 18:20:00,39.1,37.8,30.29,ENE,69,0.0,0.0,95,0.00,,,0.31,Wunderground v.1.15,2013-01-15 23:20:00,
2013-01-15 18:25:00,39.1,37.8,30.29,ENE,69,1.0,2.0,95,0.00,,,0.31,Wunderground v.1.15,2013-01-15 23:25:00,
2013-01-15 18:30:00,39.1,37.8,30.28,NNW,340,2.0,2.0,95,0.00,,,0.32,Wunderground v.1.15,2013-01-15 23:30:00,
2013-01-15 18:35:00,39.1,37.8,30.27,NNW,340,1.0,2.0,95,0.00,,,0.32,Wunderground v.1.15,2013-01-15 23:35:00,
2013-01-15 18:40:00,39.0,37.7,30.27,NNW,330,1.0,1.0,95,0.00,,,0.32,Wunderground v.1.15,2013-01-15 23:40:00,
2013-01-15 18:46:00,38.9,37.6,30.26,NNE,20,2.0,3.0,95,0.00,,,0.32,Wunderground v.1.15,2013-01-15 23:46:00,
2013-01-15 18:51:00,38.8,37.5,30.26,NNE,20,1.0,2.0,95,0.00,,,0.32,Wunderground v.1.15,2013-01-15 23:51:00,
2013-01-15 18:56:00,38.8,37.5,30.26,NE,35,3.0,3.0,95,0.00,,,0.32,Wunderground v.1.15,2013-01-15 23:56:00,
2013-01-15 19:01:00,38.7,37.4,30.27,ENE,58,0.0,1.0,95,0.00,,,0.33,Wunderground v.1.15,2013-01-16 00:01:00,
2013-01-15 19:06:00,38.7,37.4,30.28,ENE,58,1.0,1.0,95,0.00,,,0.33,Wunderground v.1.15,2013-01-16 00:06:00,
2013-01-15 19:11:00,38.6,37.3,30.28,NE,51,1.0,5.0,95,0.00,,,0.33,Wunderground v.1.15,2013-01-16 00:11:00,
2013-01-15 19:16:00,38.6,37.3,30.28,NE,51,1.0,5.0,95,0.00,,,0.33,Wunderground v.1.15,2013-01-16 00:16:00,
2013-01-15 19:21:00,38.6,37.3,30.28,NE,51,0.0,1.0,95,0.00,,,0.34,Wunderground v.1.15,2013-01-16 00:21:00,
2013-01-15 19:26:00,38.6,37.3,30.28,NE,51,0.0,2.0,95,0.00,,,0.34,Wunderground v.1.15,2013-01-16 00:26:00,
2013-01-15 19:31:00,38.5,37.2,30.28,NNE,19,1.0,2.0,95,0.06,,,0.35,Wunderground v.1.15,2013-01-16 00:31:00,
2013-01-15 19:36:00,38.4,37.1,30.28,NNE,19,0.0,2.0,95,0.06,,,0.35,Wunderground v.1.15,2013-01-16 00:36:00,
2013-01-15 19:41:00,38.4,37.1,30.28,NNE,19,0.0,1.0,95,0.07,,,0.36,Wunderground v.1.15,2013-01-16 00:41:00,
2013-01-15 19:46:00,38.3,37.0,30.28,NNE,19,0.0,2.0,95,0.07,,,0.36,Wunderground v.1.15,2013-01-16 00:46:00,
2013-01-15 19:51:00,38.3,37.0,30.27,NNE,19,0.0,1.0,95,0.07,,,0.37,Wunderground v.1.15,2013-01-16 00:51:00,
2013-01-15 19:56:00,38.2,36.9,30.27,NNE,19,1.0,2.0,95,0.07,,,0.38,Wunderground v.1.15,2013-01-16 00:56:00,
2013-01-15 20:01:00,38.1,36.8,30.27,NE,42,0.0,0.0,95,0.07,,,0.38,Wunderground v.1.15,2013-01-16 01:01:00,
2013-01-15 20:07:00,38.0,36.7,30.27,NE,42,0.0,1.0,95,0.06,,,0.39,Wunderground v.1.15,2013-01-16 01:07:00,
2013-01-15 20:12:00,38.0,36.7,30.27,NE,42,0.0,1.0,95,0.06,,,0.39,Wunderground v.1.15,2013-01-16 01:12:00,
2013-01-15 20:17:00,37.9,36.6,30.26,NE,42,0.0,1.0,95,0.06,,,0.40,Wunderground v.1.15,2013-01-16 01:17:00,
2013-01-15 20:22:00,37.9,36.6,30.26,NE,42,0.0,1.0,95,0.21,,,0.41,Wunderground v.1.15,2013-01-16 01:22:00,
2013-01-15 20:27:00,37.8,36.5,30.25,NNE,13,1.0,3.0,95,0.13,,,0.42,Wunderground v.1.15,2013-01-16 01:27:00,
2013-01-15 20:32:00,37.7,36.4,30.26,NNE,17,1.0,2.0,95,0.07,,,0.42,Wunderground v.1.15,2013-01-16 01:32:00,
2013-01-15 20:37:00,37.6,36.3,30.25,NNE,17,2.0,2.0,95,0.06,,,0.43,Wunderground v.1.15,2013-01-16 01:37:00,
2013-01-15 20:42:00,37.5,36.2,30.26,ENE,57,1.0,3.0,95,0.06,,,0.43,Wunderground v.1.15,2013-01-16 01:42:00,
2013-01-15 20:47:00,37.4,36.1,30.25,NE,56,2.0,3.0,95,0.06,,,0.44,Wunderground v.1.15,2013-01-16 01:47:00,
2013-01-15 20:52:00,37.3,36.0,30.25,NE,51,2.0,3.0,95,0.09,,,0.45,Wunderground v.1.15,2013-01-16 01:52:00,
2013-01-15 20:57:00,37.3,36.0,30.24,NE,34,1.0,3.0,95,0.09,,,0.45,Wunderground v.1.15,2013-01-16 01:57:00,
2013-01-15 21:02:00,37.3,36.0,30.25,NE,34,0.0,1.0,95,0.09,,,0.46,Wunderground v.1.15,2013-01-16 02:02:00,
2013-01-15 21:07:00,37.3,36.0,30.25,North,7,1.0,4.0,95,0.06,,,0.46,Wunderground v.1.15,2013-01-16 02:07:00,
2013-01-15 21:12:00,37.3,36.0,30.26,North,6,1.0,2.0,95,0.14,,,0.48,Wunderground v.1.15,2013-01-16 02:12:00,
2013-01-15 21:17:00,37.2,35.9,30.26,North,6,1.0,2.0,95,0.14,,,0.49,Wunderground v.1.15,2013-01-16 02:17:00,
2013-01-15 21:22:00,37.2,35.9,30.27,North,6,0.0,2.0,95,0.13,,,0.50,Wunderground v.1.15,2013-01-16 02:22:00,
2013-01-15 21:27:00,37.2,35.9,30.26,North,6,1.0,2.0,95,0.14,,,0.51,Wunderground v.1.15,2013-01-16 02:27:00,
2013-01-15 21:32:00,37.2,35.9,30.25,North,6,0.0,1.0,95,0.12,,,0.52,Wunderground v.1.15,2013-01-16 02:32:00,
2013-01-15 21:37:00,37.1,35.8,30.24,ENE,63,1.0,3.0,95,0.11,,,0.53,Wunderground v.1.15,2013-01-16 02:37:00,
2013-01-15 21:42:00,37.1,35.8,30.23,ENE,63,1.0,3.0,95,0.10,,,0.54,Wunderground v.1.15,2013-01-16 02:42:00,
2013-01-15 21:47:00,37.0,35.7,30.23,NE,55,2.0,3.0,95,0.11,,,0.55,Wunderground v.1.15,2013-01-16 02:47:00,
2013-01-15 21:52:00,37.0,35.7,30.23,NE,55,1.0,2.0,95,0.10,,,0.55,Wunderground v.1.15,2013-01-16 02:52:00,
2013-01-15 21:57:00,37.0,35.7,30.22,NE,53,0.0,3.0,95,0.08,,,0.56,Wunderground v.1.15,2013-01-16 02:57:00,
2013-01-15 22:02:00,36.9,35.6,30.21,ENE,57,2.0,2.0,95,0.08,,,0.57,Wunderground v.1.15,2013-01-16 03:02:00,
2013-01-15 22:07:00,36.9,35.6,30.21,East,91,2.0,4.0,95,0.08,,,0.57,Wunderground v.1.15,2013-01-16 03:07:00,
2013-01-15 22:12:00,36.8,35.5,30.21,NE,55,0.0,3.0,95,0.06,,,0.57,Wunderground v.1.15,2013-01-16 03:12:00,
2013-01-15 22:17:00,36.8,35.5,30.21,NE,55,0.0,3.0,95,0.04,,,0.58,Wunderground v.1.15,2013-01-16 03:17:00,
2013-01-15 22:22:00,36.8,35.5,30.21,NE,55,1.0,2.0,95,0.04,,,0.58,Wunderground v.1.15,2013-01-16 03:22:00,
2013-01-15 22:27:00,36.7,35.7,30.21,NE,55,2.0,2.0,96,0.06,,,0.59,Wunderground v.1.15,2013-01-16 03:27:00,
2013-01-15 22:32:00,36.6,35.6,30.21,NNE,25,1.0,3.0,96,0.06,,,0.59,Wunderground v.1.15,2013-01-16 03:32:00,
2013-01-15 22:37:00,36.6,35.3,30.21,NNE,25,0.0,3.0,95,0.06,,,0.59,Wunderground v.1.15,2013-01-16 03:37:00,
2013-01-15 22:42:00,36.5,35.5,30.21,North,360,0.0,2.0,96,0.04,,,0.60,Wunderground v.1.15,2013-01-16 03:42:00,
2013-01-15 22:47:00,36.4,35.4,30.21,North,357,1.0,2.0,96,0.13,,,0.61,Wunderground v.1.15,2013-01-16 03:47:00,
2013-01-15 22:52:00,36.3,35.0,30.21,North,357,0.0,2.0,95,0.14,,,0.62,Wunderground v.1.15,2013-01-16 03:52:00,
2013-01-15 22:57:00,36.2,34.9,30.21,WNW,288,2.0,3.0,95,0.12,,,0.63,Wunderground v.1.15,2013-01-16 03:57:00,
2013-01-15 23:02:00,36.2,34.9,30.21,NW,306,0.0,1.0,95,0.15,,,0.64,Wunderground v.1.15,2013-01-16 04:02:00,
2013-01-15 23:07:00,36.1,34.8,30.21,NW,306,0.0,2.0,95,0.12,,,0.65,Wunderground v.1.15,2013-01-16 04:07:00,
2013-01-15 23:12:00,36.1,35.1,30.20,NW,306,1.0,2.0,96,0.12,,,0.66,Wunderground v.1.15,2013-01-16 04:12:00,
2013-01-15 23:17:00,36.0,35.0,30.19,NW,306,0.0,3.0,96,0.08,,,0.66,Wunderground v.1.15,2013-01-16 04:17:00,
2013-01-15 23:22:00,36.0,35.0,30.19,WNW,294,2.0,3.0,96,0.07,,,0.67,Wunderground v.1.15,2013-01-16 04:22:00,
2013-01-15 23:27:00,36.0,35.0,30.19,NW,326,2.0,4.0,96,0.07,,,0.68,Wunderground v.1.15,2013-01-16 04:27:00,
2013-01-15 23:32:00,35.9,34.9,30.18,NW,326,0.0,2.0,96,0.07,,,0.68,Wunderground v.1.15,2013-01-16 04:32:00,
2013-01-15 23:37:00,35.9,34.9,30.18,NNW,330,1.0,4.0,96,0.09,,,0.69,Wunderground v.1.15,2013-01-16 04:37:00,
2013-01-15 23:42:00,35.9,34.9,30.18,NNW,330,2.0,2.0,96,0.07,,,0.70,Wunderground v.1.15,2013-01-16 04:42:00,
2013-01-15 23:47:00,35.8,34.8,30.18,NNW,330,3.0,3.0,96,0.07,,,0.70,Wunderground v.1.15,2013-01-16 04:47:00,
2013-01-15 23:52:00,35.8,34.8,30.18,NW,325,0.0,3.0,96,0.06,,,0.71,Wunderground v.1.15,2013-01-16 04:52:00,
2013-01-15 23:58:00,35.7,34.7,30.19,NW,325,0.0,3.0,96,0.06,,,0.71,Wunderground v.1.15,2013-01-16 04:58:00,